sensor_id;sensor_type;location;lat;lon;timestamp;temperature;humidity
21682;DHT22;11002;48.256;10.084;2023-05-27T00:01:24;14.40;40.10
21682;DHT22;11002;48.256;10.084;2023-05-27T00:03:51;14.30;41.60
21682;DHT22;11002;48.256;10.084;2023-05-27T00:06:19;14.20;41.50
21682;DHT22;11002;48.256;10.084;2023-05-27T00:08:48;14.10;41.60
21682;DHT22;11002;48.256;10.084;2023-05-27T00:11:15;14.10;40.70
21682;DHT22;11002;48.256;10.084;2023-05-27T00:13:42;14.00;41.60
21682;DHT22;11002;48.256;10.084;2023-05-27T00:16:10;14.00;43.00
21682;DHT22;11002;48.256;10.084;2023-05-27T00:18:37;13.90;42.90
21682;DHT22;11002;48.256;10.084;2023-05-27T00:21:05;13.80;42.80
21682;DHT22;11002;48.256;10.084;2023-05-27T00:23:32;13.70;42.80
21682;DHT22;11002;48.256;10.084;2023-05-27T00:26:01;13.60;43.90
21682;DHT22;11002;48.256;10.084;2023-05-27T00:28:28;13.50;44.00
21682;DHT22;11002;48.256;10.084;2023-05-27T00:30:57;13.40;44.80
21682;DHT22;11002;48.256;10.084;2023-05-27T00:33:24;13.30;45.50
21682;DHT22;11002;48.256;10.084;2023-05-27T00:35:52;13.10;46.50
21682;DHT22;11002;48.256;10.084;2023-05-27T00:38:19;13.00;47.60
21682;DHT22;11002;48.256;10.084;2023-05-27T00:40:46;12.90;48.40
21682;DHT22;11002;48.256;10.084;2023-05-27T00:43:16;12.80;48.40
21682;DHT22;11002;48.256;10.084;2023-05-27T00:45:44;12.70;48.40
21682;DHT22;11002;48.256;10.084;2023-05-27T00:48:11;12.60;49.50
21682;DHT22;11002;48.256;10.084;2023-05-27T00:50:38;12.50;50.70
21682;DHT22;11002;48.256;10.084;2023-05-27T00:53:06;12.40;51.50
21682;DHT22;11002;48.256;10.084;2023-05-27T00:55:33;12.30;52.00
21682;DHT22;11002;48.256;10.084;2023-05-27T00:58:01;12.20;53.30
21682;DHT22;11002;48.256;10.084;2023-05-27T01:00:31;12.20;54.10
21682;DHT22;11002;48.256;10.084;2023-05-27T01:02:59;12.10;54.00
21682;DHT22;11002;48.256;10.084;2023-05-27T01:05:26;12.00;53.90
21682;DHT22;11002;48.256;10.084;2023-05-27T01:08:03;11.90;53.90
21682;DHT22;11002;48.256;10.084;2023-05-27T01:10:36;11.90;54.90
21682;DHT22;11002;48.256;10.084;2023-05-27T01:13:15;11.80;55.60
21682;DHT22;11002;48.256;10.084;2023-05-27T01:15:46;11.70;55.80
21682;DHT22;11002;48.256;10.084;2023-05-27T01:18:15;11.70;56.60
21682;DHT22;11002;48.256;10.084;2023-05-27T01:20:47;11.60;57.00
21682;DHT22;11002;48.256;10.084;2023-05-27T01:23:17;11.60;57.40
21682;DHT22;11002;48.256;10.084;2023-05-27T01:25:44;11.60;58.20
21682;DHT22;11002;48.256;10.084;2023-05-27T01:28:12;11.50;57.40
21682;DHT22;11002;48.256;10.084;2023-05-27T01:30:39;11.50;57.70
21682;DHT22;11002;48.256;10.084;2023-05-27T01:33:08;11.50;58.10
21682;DHT22;11002;48.256;10.084;2023-05-27T01:35:40;11.40;57.60
21682;DHT22;11002;48.256;10.084;2023-05-27T01:38:11;11.40;57.90
21682;DHT22;11002;48.256;10.084;2023-05-27T01:40:41;11.30;58.00
21682;DHT22;11002;48.256;10.084;2023-05-27T01:43:09;11.30;58.40
21682;DHT22;11002;48.256;10.084;2023-05-27T01:45:39;11.30;58.20
21682;DHT22;11002;48.256;10.084;2023-05-27T01:48:08;11.30;58.40
21682;DHT22;11002;48.256;10.084;2023-05-27T01:50:35;11.30;58.70
21682;DHT22;11002;48.256;10.084;2023-05-27T01:53:03;11.20;58.40
21682;DHT22;11002;48.256;10.084;2023-05-27T01:55:30;11.20;58.80
21682;DHT22;11002;48.256;10.084;2023-05-27T01:57:59;11.10;59.10
21682;DHT22;11002;48.256;10.084;2023-05-27T02:00:26;11.10;59.30
21682;DHT22;11002;48.256;10.084;2023-05-27T02:02:54;11.10;59.30
21682;DHT22;11002;48.256;10.084;2023-05-27T02:05:23;11.00;59.20
21682;DHT22;11002;48.256;10.084;2023-05-27T02:07:50;10.90;59.10
21682;DHT22;11002;48.256;10.084;2023-05-27T02:10:17;10.90;59.60
21682;DHT22;11002;48.256;10.084;2023-05-27T02:12:46;10.80;59.60
21682;DHT22;11002;48.256;10.084;2023-05-27T02:15:16;10.80;60.00
21682;DHT22;11002;48.256;10.084;2023-05-27T02:17:44;10.80;60.10
21682;DHT22;11002;48.256;10.084;2023-05-27T02:20:13;10.70;60.10
21682;DHT22;11002;48.256;10.084;2023-05-27T02:22:40;10.70;60.40
21682;DHT22;11002;48.256;10.084;2023-05-27T02:25:09;10.70;60.50
21682;DHT22;11002;48.256;10.084;2023-05-27T02:27:38;10.60;61.30
21682;DHT22;11002;48.256;10.084;2023-05-27T02:30:08;10.60;61.30
21682;DHT22;11002;48.256;10.084;2023-05-27T02:32:37;10.60;61.80
21682;DHT22;11002;48.256;10.084;2023-05-27T02:35:06;10.50;62.10
21682;DHT22;11002;48.256;10.084;2023-05-27T02:37:33;10.50;62.50
21682;DHT22;11002;48.256;10.084;2023-05-27T02:40:00;10.40;62.60
21682;DHT22;11002;48.256;10.084;2023-05-27T02:42:28;10.50;62.80
21682;DHT22;11002;48.256;10.084;2023-05-27T02:44:56;10.40;62.30
21682;DHT22;11002;48.256;10.084;2023-05-27T02:47:23;10.40;62.60
21682;DHT22;11002;48.256;10.084;2023-05-27T02:49:51;10.40;62.70
21682;DHT22;11002;48.256;10.084;2023-05-27T02:52:19;10.40;62.90
21682;DHT22;11002;48.256;10.084;2023-05-27T02:54:46;10.30;63.00
21682;DHT22;11002;48.256;10.084;2023-05-27T02:57:13;10.30;63.40
21682;DHT22;11002;48.256;10.084;2023-05-27T02:59:41;10.20;64.00
21682;DHT22;11002;48.256;10.084;2023-05-27T03:02:08;10.20;64.40
21682;DHT22;11002;48.256;10.084;2023-05-27T03:04:35;10.20;64.50
21682;DHT22;11002;48.256;10.084;2023-05-27T03:07:05;10.10;64.40
21682;DHT22;11002;48.256;10.084;2023-05-27T03:09:32;10.10;64.90
21682;DHT22;11002;48.256;10.084;2023-05-27T03:11:59;10.30;64.50
21682;DHT22;11002;48.256;10.084;2023-05-27T03:14:26;10.10;64.40
21682;DHT22;11002;48.256;10.084;2023-05-27T03:16:54;10.10;65.10
21682;DHT22;11002;48.256;10.084;2023-05-27T03:19:21;10.10;65.10
21682;DHT22;11002;48.256;10.084;2023-05-27T03:21:49;10.00;65.00
21682;DHT22;11002;48.256;10.084;2023-05-27T03:24:19;10.00;65.00
21682;DHT22;11002;48.256;10.084;2023-05-27T03:26:46;10.00;65.00
21682;DHT22;11002;48.256;10.084;2023-05-27T03:29:13;10.00;65.00
21682;DHT22;11002;48.256;10.084;2023-05-27T03:31:41;9.90;65.90
21682;DHT22;11002;48.256;10.084;2023-05-27T03:34:13;10.00;65.40
21682;DHT22;11002;48.256;10.084;2023-05-27T03:36:41;9.80;66.00
21682;DHT22;11002;48.256;10.084;2023-05-27T03:39:13;9.80;65.80
21682;DHT22;11002;48.256;10.084;2023-05-27T03:41:47;9.80;65.80
21682;DHT22;11002;48.256;10.084;2023-05-27T03:44:14;9.80;65.80
21682;DHT22;11002;48.256;10.084;2023-05-27T03:46:42;9.80;66.50
21682;DHT22;11002;48.256;10.084;2023-05-27T03:49:09;9.80;67.00
21682;DHT22;11002;48.256;10.084;2023-05-27T03:51:37;9.90;66.20
21682;DHT22;11002;48.256;10.084;2023-05-27T03:54:05;9.90;65.90
21682;DHT22;11002;48.256;10.084;2023-05-27T03:56:32;9.90;65.90
21682;DHT22;11002;48.256;10.084;2023-05-27T03:59:00;9.90;65.90
21682;DHT22;11002;48.256;10.084;2023-05-27T04:01:28;9.90;65.90
21682;DHT22;11002;48.256;10.084;2023-05-27T04:03:56;9.90;65.90
21682;DHT22;11002;48.256;10.084;2023-05-27T04:06:23;10.10;65.10
21682;DHT22;11002;48.256;10.084;2023-05-27T04:08:51;10.00;65.50
21682;DHT22;11002;48.256;10.084;2023-05-27T04:11:18;10.00;65.00
21682;DHT22;11002;48.256;10.084;2023-05-27T04:13:46;10.10;65.10
21682;DHT22;11002;48.256;10.084;2023-05-27T04:16:16;10.20;65.10
21682;DHT22;11002;48.256;10.084;2023-05-27T04:18:43;10.20;65.10
21682;DHT22;11002;48.256;10.084;2023-05-27T04:21:14;10.30;65.20
21682;DHT22;11002;48.256;10.084;2023-05-27T04:23:42;10.40;65.40
21682;DHT22;11002;48.256;10.084;2023-05-27T04:26:09;10.40;64.10
21682;DHT22;11002;48.256;10.084;2023-05-27T04:28:40;10.50;63.40
21682;DHT22;11002;48.256;10.084;2023-05-27T04:31:11;10.60;63.00
21682;DHT22;11002;48.256;10.084;2023-05-27T04:33:45;10.70;62.30
21682;DHT22;11002;48.256;10.084;2023-05-27T04:36:14;10.80;60.80
21682;DHT22;11002;48.256;10.084;2023-05-27T04:39:02;10.90;60.20
21682;DHT22;11002;48.256;10.084;2023-05-27T04:41:32;11.10;59.30
21682;DHT22;11002;48.256;10.084;2023-05-27T04:44:05;11.20;59.40
21682;DHT22;11002;48.256;10.084;2023-05-27T04:46:38;11.20;58.70
21682;DHT22;11002;48.256;10.084;2023-05-27T04:49:08;11.40;58.50
21682;DHT22;11002;48.256;10.084;2023-05-27T04:51:36;11.50;57.10
21682;DHT22;11002;48.256;10.084;2023-05-27T04:54:04;11.60;56.90
21682;DHT22;11002;48.256;10.084;2023-05-27T04:56:33;11.80;56.30
21682;DHT22;11002;48.256;10.084;2023-05-27T04:59:02;12.00;54.00
21682;DHT22;11002;48.256;10.084;2023-05-27T05:01:32;12.20;54.10
21682;DHT22;11002;48.256;10.084;2023-05-27T05:04:22;12.40;54.10
21682;DHT22;11002;48.256;10.084;2023-05-27T05:07:01;12.60;52.40
21682;DHT22;11002;48.256;10.084;2023-05-27T05:09:31;12.80;50.90
21682;DHT22;11002;48.256;10.084;2023-05-27T05:12:11;13.00;48.60
21682;DHT22;11002;48.256;10.084;2023-05-27T05:14:42;13.10;48.60
21682;DHT22;11002;48.256;10.084;2023-05-27T05:17:10;13.30;48.20
21682;DHT22;11002;48.256;10.084;2023-05-27T05:19:38;13.40;47.40
21682;DHT22;11002;48.256;10.084;2023-05-27T05:22:06;13.50;47.00
21682;DHT22;11002;48.256;10.084;2023-05-27T05:24:34;13.70;45.40
21682;DHT22;11002;48.256;10.084;2023-05-27T05:27:02;13.80;45.60
21682;DHT22;11002;48.256;10.084;2023-05-27T05:29:30;13.90;44.70
21682;DHT22;11002;48.256;10.084;2023-05-27T05:31:58;14.00;44.60
21682;DHT22;11002;48.256;10.084;2023-05-27T05:34:26;14.10;43.10
21682;DHT22;11002;48.256;10.084;2023-05-27T05:36:55;14.10;43.10
21682;DHT22;11002;48.256;10.084;2023-05-27T05:39:23;14.30;43.30
21682;DHT22;11002;48.256;10.084;2023-05-27T05:41:53;14.30;43.30
21682;DHT22;11002;48.256;10.084;2023-05-27T05:44:21;14.40;43.40
21682;DHT22;11002;48.256;10.084;2023-05-27T05:46:52;14.40;43.40
21682;DHT22;11002;48.256;10.084;2023-05-27T05:49:21;14.40;43.40
21682;DHT22;11002;48.256;10.084;2023-05-27T05:51:49;14.50;42.10
21682;DHT22;11002;48.256;10.084;2023-05-27T05:54:18;14.60;42.20
21682;DHT22;11002;48.256;10.084;2023-05-27T05:56:51;14.60;43.50
21682;DHT22;11002;48.256;10.084;2023-05-27T05:59:18;14.60;43.50
21682;DHT22;11002;48.256;10.084;2023-05-27T06:01:46;14.70;42.30
21682;DHT22;11002;48.256;10.084;2023-05-27T06:04:13;14.70;43.60
21682;DHT22;11002;48.256;10.084;2023-05-27T06:06:44;14.90;41.10
21682;DHT22;11002;48.256;10.084;2023-05-27T06:09:31;15.10;39.20
21682;DHT22;11002;48.256;10.084;2023-05-27T06:12:02;15.20;39.80
21682;DHT22;11002;48.256;10.084;2023-05-27T06:14:37;15.20;40.10
21682;DHT22;11002;48.256;10.084;2023-05-27T06:17:04;15.20;40.50
21682;DHT22;11002;48.256;10.084;2023-05-27T06:19:32;15.40;37.70
21682;DHT22;11002;48.256;10.084;2023-05-27T06:22:00;15.70;35.90
21682;DHT22;11002;48.256;10.084;2023-05-27T06:25:07;15.60;38.50
21682;DHT22;11002;48.256;10.084;2023-05-27T06:27:45;15.60;37.90
21682;DHT22;11002;48.256;10.084;2023-05-27T06:30:13;15.60;39.00
21682;DHT22;11002;48.256;10.084;2023-05-27T06:32:43;15.70;38.00
21682;DHT22;11002;48.256;10.084;2023-05-27T06:35:11;15.90;38.20
21682;DHT22;11002;48.256;10.084;2023-05-27T06:37:38;16.00;37.60
21682;DHT22;11002;48.256;10.084;2023-05-27T06:40:08;16.30;36.00
21682;DHT22;11002;48.256;10.084;2023-05-27T06:42:36;16.50;36.20
21682;DHT22;11002;48.256;10.084;2023-05-27T06:45:24;16.50;33.20
21682;DHT22;11002;48.256;10.084;2023-05-27T06:48:01;16.70;32.60
21682;DHT22;11002;48.256;10.084;2023-05-27T06:50:28;16.90;32.40
21682;DHT22;11002;48.256;10.084;2023-05-27T06:52:55;17.10;32.60
21682;DHT22;11002;48.256;10.084;2023-05-27T06:55:53;17.30;32.70
21682;DHT22;11002;48.256;10.084;2023-05-27T06:58:41;17.40;32.80
21682;DHT22;11002;48.256;10.084;2023-05-27T07:01:12;17.70;30.70
21682;DHT22;11002;48.256;10.084;2023-05-27T07:03:46;18.10;32.50
21682;DHT22;11002;48.256;10.084;2023-05-27T07:06:18;18.50;30.20
21682;DHT22;11002;48.256;10.084;2023-05-27T07:08:49;18.70;30.50
21682;DHT22;11002;48.256;10.084;2023-05-27T07:11:32;18.60;30.40
21682;DHT22;11002;48.256;10.084;2023-05-27T07:14:04;19.00;28.10
21682;DHT22;11002;48.256;10.084;2023-05-27T07:16:33;19.20;27.70
21682;DHT22;11002;48.256;10.084;2023-05-27T07:19:01;19.30;28.10
21682;DHT22;11002;48.256;10.084;2023-05-27T07:21:32;19.70;27.60
21682;DHT22;11002;48.256;10.084;2023-05-27T07:24:02;19.90;26.30
21682;DHT22;11002;48.256;10.084;2023-05-27T07:26:36;19.90;26.50
21682;DHT22;11002;48.256;10.084;2023-05-27T07:29:03;20.10;25.40
21682;DHT22;11002;48.256;10.084;2023-05-27T07:31:51;20.50;25.20
21682;DHT22;11002;48.256;10.084;2023-05-27T07:34:20;20.70;24.70
21682;DHT22;11002;48.256;10.084;2023-05-27T07:36:48;21.30;24.30
21682;DHT22;11002;48.256;10.084;2023-05-27T07:39:15;22.00;23.70
21682;DHT22;11002;48.256;10.084;2023-05-27T07:41:44;22.20;21.10
21682;DHT22;11002;48.256;10.084;2023-05-27T07:44:11;22.70;20.00
21682;DHT22;11002;48.256;10.084;2023-05-27T07:46:38;22.80;20.20
21682;DHT22;11002;48.256;10.084;2023-05-27T07:49:06;22.90;19.90
21682;DHT22;11002;48.256;10.084;2023-05-27T07:51:40;23.10;18.30
21682;DHT22;11002;48.256;10.084;2023-05-27T07:54:09;23.60;18.00
21682;DHT22;11002;48.256;10.084;2023-05-27T07:56:37;23.80;16.70
21682;DHT22;11002;48.256;10.084;2023-05-27T07:59:06;23.60;17.80
21682;DHT22;11002;48.256;10.084;2023-05-27T08:01:33;23.60;17.90
21682;DHT22;11002;48.256;10.084;2023-05-27T08:04:01;23.80;16.70
21682;DHT22;11002;48.256;10.084;2023-05-27T08:07:01;24.20;15.20
21682;DHT22;11002;48.256;10.084;2023-05-27T08:09:46;24.00;17.00
21682;DHT22;11002;48.256;10.084;2023-05-27T08:12:25;24.00;16.40
21682;DHT22;11002;48.256;10.084;2023-05-27T08:15:12;24.20;16.10
21682;DHT22;11002;48.256;10.084;2023-05-27T08:17:45;24.40;17.40
21682;DHT22;11002;48.256;10.084;2023-05-27T08:20:26;24.60;15.40
21682;DHT22;11002;48.256;10.084;2023-05-27T08:23:19;25.20;15.80
21682;DHT22;11002;48.256;10.084;2023-05-27T08:25:55;25.20;15.80
21682;DHT22;11002;48.256;10.084;2023-05-27T08:28:41;25.60;15.80
21682;DHT22;11002;48.256;10.084;2023-05-27T08:31:28;25.90;14.30
21682;DHT22;11002;48.256;10.084;2023-05-27T08:33:59;25.80;16.10
21682;DHT22;11002;48.256;10.084;2023-05-27T08:36:26;26.20;14.80
21682;DHT22;11002;48.256;10.084;2023-05-27T08:38:56;26.30;13.40
21682;DHT22;11002;48.256;10.084;2023-05-27T08:41:28;26.80;12.40
21682;DHT22;11002;48.256;10.084;2023-05-27T08:43:57;27.10;13.00
21682;DHT22;11002;48.256;10.084;2023-05-27T08:46:26;27.40;11.10
21682;DHT22;11002;48.256;10.084;2023-05-27T08:48:55;27.60;11.30
21682;DHT22;11002;48.256;10.084;2023-05-27T08:51:23;27.90;10.40
21682;DHT22;11002;48.256;10.084;2023-05-27T08:53:51;27.80;10.50
21682;DHT22;11002;48.256;10.084;2023-05-27T08:56:19;27.90;11.70
21682;DHT22;11002;48.256;10.084;2023-05-27T08:58:48;28.10;10.50
21682;DHT22;11002;48.256;10.084;2023-05-27T09:01:17;28.30;11.70
21682;DHT22;11002;48.256;10.084;2023-05-27T09:03:45;29.40;7.40
21682;DHT22;11002;48.256;10.084;2023-05-27T09:06:15;29.80;6.60
21682;DHT22;11002;48.256;10.084;2023-05-27T09:08:43;29.50;6.60
21682;DHT22;11002;48.256;10.084;2023-05-27T09:11:19;29.30;9.30
21682;DHT22;11002;48.256;10.084;2023-05-27T09:13:47;29.20;9.30
21682;DHT22;11002;48.256;10.084;2023-05-27T09:16:20;29.50;7.30
21682;DHT22;11002;48.256;10.084;2023-05-27T09:18:48;29.50;8.70
21682;DHT22;11002;48.256;10.084;2023-05-27T09:21:16;30.00;6.70
21682;DHT22;11002;48.256;10.084;2023-05-27T09:23:44;30.40;6.90
21682;DHT22;11002;48.256;10.084;2023-05-27T09:26:11;30.50;7.00
21682;DHT22;11002;48.256;10.084;2023-05-27T09:28:39;30.70;7.10
21682;DHT22;11002;48.256;10.084;2023-05-27T09:31:08;31.10;6.20
21682;DHT22;11002;48.256;10.084;2023-05-27T09:33:36;31.10;7.30
21682;DHT22;11002;48.256;10.084;2023-05-27T09:36:05;31.40;5.30
21682;DHT22;11002;48.256;10.084;2023-05-27T09:38:34;30.90;7.20
21682;DHT22;11002;48.256;10.084;2023-05-27T09:41:03;31.20;5.00
21682;DHT22;11002;48.256;10.084;2023-05-27T09:43:30;31.30;5.20
21682;DHT22;11002;48.256;10.084;2023-05-27T09:46:00;31.80;4.30
21682;DHT22;11002;48.256;10.084;2023-05-27T09:48:29;32.40;3.60
21682;DHT22;11002;48.256;10.084;2023-05-27T09:50:58;32.00;4.90
21682;DHT22;11002;48.256;10.084;2023-05-27T09:53:26;32.10;4.30
21682;DHT22;11002;48.256;10.084;2023-05-27T09:55:56;32.90;3.90
21682;DHT22;11002;48.256;10.084;2023-05-27T09:58:24;33.20;4.40
21682;DHT22;11002;48.256;10.084;2023-05-27T10:00:53;33.30;3.20
21682;DHT22;11002;48.256;10.084;2023-05-27T10:03:22;34.20;1.10
21682;DHT22;11002;48.256;10.084;2023-05-27T10:05:51;34.80;1.00
21682;DHT22;11002;48.256;10.084;2023-05-27T10:08:19;34.40;1.00
21682;DHT22;11002;48.256;10.084;2023-05-27T10:10:46;34.70;1.00
21682;DHT22;11002;48.256;10.084;2023-05-27T10:13:15;34.90;1.00
21682;DHT22;11002;48.256;10.084;2023-05-27T10:15:47;34.80;1.00
21682;DHT22;11002;48.256;10.084;2023-05-27T10:18:23;34.50;1.00
21682;DHT22;11002;48.256;10.084;2023-05-27T10:20:51;34.30;1.00
21682;DHT22;11002;48.256;10.084;2023-05-27T10:23:23;33.90;1.00
21682;DHT22;11002;48.256;10.084;2023-05-27T10:25:52;33.50;1.00
21682;DHT22;11002;48.256;10.084;2023-05-27T10:28:30;33.50;2.00
21682;DHT22;11002;48.256;10.084;2023-05-27T10:31:06;33.60;1.00
21682;DHT22;11002;48.256;10.084;2023-05-27T10:33:35;34.10;1.00
21682;DHT22;11002;48.256;10.084;2023-05-27T10:36:09;34.70;1.00
21682;DHT22;11002;48.256;10.084;2023-05-27T10:38:38;35.00;1.00
21682;DHT22;11002;48.256;10.084;2023-05-27T10:41:07;34.80;1.00
21682;DHT22;11002;48.256;10.084;2023-05-27T10:43:36;34.80;1.00
21682;DHT22;11002;48.256;10.084;2023-05-27T10:46:04;34.50;1.00
21682;DHT22;11002;48.256;10.084;2023-05-27T10:48:34;34.10;1.00
21682;DHT22;11002;48.256;10.084;2023-05-27T10:51:03;33.70;1.00
21682;DHT22;11002;48.256;10.084;2023-05-27T10:53:31;33.50;1.00
21682;DHT22;11002;48.256;10.084;2023-05-27T10:55:59;33.50;1.50
21682;DHT22;11002;48.256;10.084;2023-05-27T10:58:27;33.90;1.00
21682;DHT22;11002;48.256;10.084;2023-05-27T11:00:56;33.70;1.10
21682;DHT22;11002;48.256;10.084;2023-05-27T11:03:25;33.90;1.00
21682;DHT22;11002;48.256;10.084;2023-05-27T11:06:00;33.60;1.20
21682;DHT22;11002;48.256;10.084;2023-05-27T11:08:28;33.90;1.00
21682;DHT22;11002;48.256;10.084;2023-05-27T11:10:59;34.20;1.00
21682;DHT22;11002;48.256;10.084;2023-05-27T11:13:35;34.10;1.00
21682;DHT22;11002;48.256;10.084;2023-05-27T11:16:05;34.80;1.00
21682;DHT22;11002;48.256;10.084;2023-05-27T11:18:36;34.90;1.00
21682;DHT22;11002;48.256;10.084;2023-05-27T11:21:04;34.90;1.00
21682;DHT22;11002;48.256;10.084;2023-05-27T11:23:36;34.70;1.00
21682;DHT22;11002;48.256;10.084;2023-05-27T11:26:11;34.80;1.00
21682;DHT22;11002;48.256;10.084;2023-05-27T11:28:45;35.00;1.00
21682;DHT22;11002;48.256;10.084;2023-05-27T11:31:14;34.70;1.00
21682;DHT22;11002;48.256;10.084;2023-05-27T11:33:42;34.30;1.00
21682;DHT22;11002;48.256;10.084;2023-05-27T11:36:12;34.20;1.00
21682;DHT22;11002;48.256;10.084;2023-05-27T11:38:48;34.10;1.00
21682;DHT22;11002;48.256;10.084;2023-05-27T11:41:16;34.00;1.00
21682;DHT22;11002;48.256;10.084;2023-05-27T11:43:51;34.20;1.00
21682;DHT22;11002;48.256;10.084;2023-05-27T11:46:21;33.90;1.30
21682;DHT22;11002;48.256;10.084;2023-05-27T11:48:49;34.50;1.00
21682;DHT22;11002;48.256;10.084;2023-05-27T11:51:16;35.20;1.00
21682;DHT22;11002;48.256;10.084;2023-05-27T11:53:47;35.20;1.00
21682;DHT22;11002;48.256;10.084;2023-05-27T11:56:14;34.70;1.00
21682;DHT22;11002;48.256;10.084;2023-05-27T11:58:42;34.50;1.00
21682;DHT22;11002;48.256;10.084;2023-05-27T12:01:09;34.30;1.00
21682;DHT22;11002;48.256;10.084;2023-05-27T12:03:38;33.90;1.00
21682;DHT22;11002;48.256;10.084;2023-05-27T12:06:05;33.90;1.00
21682;DHT22;11002;48.256;10.084;2023-05-27T12:08:32;33.80;1.00
21682;DHT22;11002;48.256;10.084;2023-05-27T12:11:01;34.10;1.00
21682;DHT22;11002;48.256;10.084;2023-05-27T12:13:28;33.60;1.00
21682;DHT22;11002;48.256;10.084;2023-05-27T12:15:57;33.90;1.00
21682;DHT22;11002;48.256;10.084;2023-05-27T12:18:25;33.80;1.00
21682;DHT22;11002;48.256;10.084;2023-05-27T12:20:53;33.50;1.00
21682;DHT22;11002;48.256;10.084;2023-05-27T12:23:21;34.40;1.00
21682;DHT22;11002;48.256;10.084;2023-05-27T12:25:48;34.90;1.00
21682;DHT22;11002;48.256;10.084;2023-05-27T12:28:15;34.30;1.00
21682;DHT22;11002;48.256;10.084;2023-05-27T12:30:42;34.30;1.00
21682;DHT22;11002;48.256;10.084;2023-05-27T12:33:10;34.10;1.00
21682;DHT22;11002;48.256;10.084;2023-05-27T12:35:37;33.50;1.00
21682;DHT22;11002;48.256;10.084;2023-05-27T12:38:06;34.10;1.00
21682;DHT22;11002;48.256;10.084;2023-05-27T12:40:34;33.90;1.00
21682;DHT22;11002;48.256;10.084;2023-05-27T12:43:01;33.90;1.00
21682;DHT22;11002;48.256;10.084;2023-05-27T12:45:30;33.80;1.00
21682;DHT22;11002;48.256;10.084;2023-05-27T12:47:57;33.20;1.00
21682;DHT22;11002;48.256;10.084;2023-05-27T12:50:25;31.80;1.60
21682;DHT22;11002;48.256;10.084;2023-05-27T12:52:53;30.80;4.60
21682;DHT22;11002;48.256;10.084;2023-05-27T12:55:21;29.90;4.30
21682;DHT22;11002;48.256;10.084;2023-05-27T12:57:51;28.70;6.00
21682;DHT22;11002;48.256;10.084;2023-05-27T13:00:20;27.90;5.70
21682;DHT22;11002;48.256;10.084;2023-05-27T13:02:48;27.30;7.50
21682;DHT22;11002;48.256;10.084;2023-05-27T13:05:17;26.70;8.70
21682;DHT22;11002;48.256;10.084;2023-05-27T13:07:54;26.10;10.30
21682;DHT22;11002;48.256;10.084;2023-05-27T13:10:23;25.60;10.70
21682;DHT22;11002;48.256;10.084;2023-05-27T13:12:51;25.20;11.30
21682;DHT22;11002;48.256;10.084;2023-05-27T13:15:19;24.80;12.90
21682;DHT22;11002;48.256;10.084;2023-05-27T13:17:48;24.60;11.80
21682;DHT22;11002;48.256;10.084;2023-05-27T13:20:16;24.40;12.10
21682;DHT22;11002;48.256;10.084;2023-05-27T13:22:44;24.20;12.30
21682;DHT22;11002;48.256;10.084;2023-05-27T13:25:12;24.00;14.70
21682;DHT22;11002;48.256;10.084;2023-05-27T13:27:42;24.00;14.10
21682;DHT22;11002;48.256;10.084;2023-05-27T13:30:11;24.00;13.50
21682;DHT22;11002;48.256;10.084;2023-05-27T13:32:39;23.90;15.00
21682;DHT22;11002;48.256;10.084;2023-05-27T13:35:07;23.90;15.00
21682;DHT22;11002;48.256;10.084;2023-05-27T13:37:34;23.70;14.80
21682;DHT22;11002;48.256;10.084;2023-05-27T13:40:02;23.70;15.10
21682;DHT22;11002;48.256;10.084;2023-05-27T13:42:29;23.70;15.60
21682;DHT22;11002;48.256;10.084;2023-05-27T13:44:58;23.80;14.90
21682;DHT22;11002;48.256;10.084;2023-05-27T13:47:25;24.00;14.60
21682;DHT22;11002;48.256;10.084;2023-05-27T13:49:52;23.90;15.00
21682;DHT22;11002;48.256;10.084;2023-05-27T13:52:20;23.80;14.90
21682;DHT22;11002;48.256;10.084;2023-05-27T13:54:47;23.80;14.90
21682;DHT22;11002;48.256;10.084;2023-05-27T13:57:15;23.90;15.00
21682;DHT22;11002;48.256;10.084;2023-05-27T13:59:42;24.00;13.80
21682;DHT22;11002;48.256;10.084;2023-05-27T14:02:10;23.80;14.90
21682;DHT22;11002;48.256;10.084;2023-05-27T14:04:38;23.70;14.80
21682;DHT22;11002;48.256;10.084;2023-05-27T14:07:05;23.70;14.80
21682;DHT22;11002;48.256;10.084;2023-05-27T14:09:32;23.60;14.80
21682;DHT22;11002;48.256;10.084;2023-05-27T14:12:00;23.50;14.70
21682;DHT22;11002;48.256;10.084;2023-05-27T14:14:28;23.40;14.60
21682;DHT22;11002;48.256;10.084;2023-05-27T14:16:55;23.30;14.60
21682;DHT22;11002;48.256;10.084;2023-05-27T14:19:24;23.40;14.70
21682;DHT22;11002;48.256;10.084;2023-05-27T14:21:51;23.50;14.70
21682;DHT22;11002;48.256;10.084;2023-05-27T14:24:19;23.40;14.70
21682;DHT22;11002;48.256;10.084;2023-05-27T14:26:46;23.30;14.60
21682;DHT22;11002;48.256;10.084;2023-05-27T14:29:14;23.20;14.50
21682;DHT22;11002;48.256;10.084;2023-05-27T14:31:41;23.20;16.70
21682;DHT22;11002;48.256;10.084;2023-05-27T14:34:08;23.10;14.40
21682;DHT22;11002;48.256;10.084;2023-05-27T14:36:37;23.20;14.50
21682;DHT22;11002;48.256;10.084;2023-05-27T14:39:04;23.00;14.40
21682;DHT22;11002;48.256;10.084;2023-05-27T14:41:32;23.00;14.40
21682;DHT22;11002;48.256;10.084;2023-05-27T14:44:00;23.00;14.40
21682;DHT22;11002;48.256;10.084;2023-05-27T14:46:27;22.90;15.20
21682;DHT22;11002;48.256;10.084;2023-05-27T14:48:54;22.90;15.50
21682;DHT22;11002;48.256;10.084;2023-05-27T14:51:22;22.80;16.30
21682;DHT22;11002;48.256;10.084;2023-05-27T14:53:50;22.70;16.30
21682;DHT22;11002;48.256;10.084;2023-05-27T14:56:18;22.80;14.20
21682;DHT22;11002;48.256;10.084;2023-05-27T14:58:46;22.80;14.90
21682;DHT22;11002;48.256;10.084;2023-05-27T15:01:13;22.80;15.40
21682;DHT22;11002;48.256;10.084;2023-05-27T15:03:40;22.80;16.10
21682;DHT22;11002;48.256;10.084;2023-05-27T15:06:08;22.90;14.30
21682;DHT22;11002;48.256;10.084;2023-05-27T15:08:36;22.90;14.30
21682;DHT22;11002;48.256;10.084;2023-05-27T15:11:05;22.80;14.60
21682;DHT22;11002;48.256;10.084;2023-05-27T15:13:32;22.70;14.90
21682;DHT22;11002;48.256;10.084;2023-05-27T15:15:59;22.60;15.20
21682;DHT22;11002;48.256;10.084;2023-05-27T15:18:27;22.60;17.20
21682;DHT22;11002;48.256;10.084;2023-05-27T15:20:54;22.50;17.30
21682;DHT22;11002;48.256;10.084;2023-05-27T15:23:21;22.60;15.20
21682;DHT22;11002;48.256;10.084;2023-05-27T15:25:48;22.40;15.70
21682;DHT22;11002;48.256;10.084;2023-05-27T15:28:17;22.50;15.60
21682;DHT22;11002;48.256;10.084;2023-05-27T15:30:44;22.40;15.60
21682;DHT22;11002;48.256;10.084;2023-05-27T15:33:12;22.40;16.00
21682;DHT22;11002;48.256;10.084;2023-05-27T15:35:39;22.50;14.00